createdAt,value
2023-03-21T00:01:55.754Z,41.42
2023-03-21T00:04:26.052Z,41.49
2023-03-21T00:06:56.316Z,41.56
2023-03-21T00:09:24.722Z,41.47
2023-03-21T00:11:53.129Z,41.57
2023-03-21T00:14:21.515Z,41.56
2023-03-21T00:16:50.860Z,41.50
2023-03-21T00:19:22.300Z,41.63
2023-03-21T00:22:06.432Z,41.65
2023-03-21T00:24:37.030Z,41.48
2023-03-21T00:29:54.685Z,41.67
2023-03-21T00:32:23.744Z,41.47
2023-03-21T00:35:06.752Z,41.75
2023-03-21T00:37:43.167Z,41.52
2023-03-21T00:40:25.477Z,41.63
2023-03-21T00:42:56.235Z,41.47
2023-03-21T00:45:24.826Z,41.44
2023-03-21T00:47:53.368Z,41.66
2023-03-21T00:50:23.481Z,41.67
2023-03-21T00:52:51.978Z,41.61
2023-03-21T00:55:21.468Z,41.73
2023-03-21T00:58:01.139Z,41.75
2023-03-21T01:00:30.562Z,41.75
2023-03-21T01:03:21.264Z,41.79
2023-03-21T01:06:07.064Z,41.59
2023-03-21T01:08:52.256Z,41.69
2023-03-21T01:11:24.802Z,41.59
2023-03-21T01:14:04.265Z,41.60
2023-03-21T01:16:40.277Z,41.37
2023-03-21T01:19:22.268Z,41.42
2023-03-21T01:21:54.734Z,41.37
2023-03-21T01:24:23.213Z,41.27
2023-03-21T01:26:51.671Z,41.07
2023-03-21T01:29:20.298Z,41.08
2023-03-21T01:31:48.953Z,40.91
2023-03-21T01:34:17.411Z,40.81
2023-03-21T01:36:46.100Z,40.85
2023-03-21T01:39:16.025Z,40.60
2023-03-21T01:41:45.361Z,40.58
2023-03-21T01:44:18.009Z,40.45
2023-03-21T01:47:00.069Z,40.37
2023-03-21T01:49:38.768Z,40.52
2023-03-21T01:52:20.969Z,40.24
2023-03-21T01:54:55.964Z,40.42
2023-03-21T01:57:41.047Z,40.43
2023-03-21T02:00:13.227Z,40.17
2023-03-21T02:02:52.622Z,40.31
2023-03-21T02:05:28.877Z,40.09
2023-03-21T02:07:57.908Z,40.31
2023-03-21T02:10:29.430Z,40.22
2023-03-21T02:13:08.180Z,40.16
2023-03-21T02:15:38.869Z,40.11
2023-03-21T02:18:17.517Z,40.14
2023-03-21T02:21:51.579Z,40.18
2023-03-21T02:25:16.254Z,40.31
2023-03-21T02:27:58.609Z,40.15
2023-03-21T02:31:22.808Z,40.15
2023-03-21T02:34:32.496Z,40.11
2023-03-21T02:37:37.576Z,40.13
2023-03-21T02:40:15.527Z,39.94
2023-03-21T02:43:01.399Z,40.14
2023-03-21T02:45:37.233Z,39.97
2023-03-21T02:48:20.265Z,40.10
2023-03-21T02:50:58.086Z,40.21
2023-03-21T02:53:34.831Z,40.30
2023-03-21T02:56:04.438Z,40.03
2023-03-21T02:58:34.650Z,40.13
2023-03-21T03:01:03.164Z,40.25
2023-03-21T03:03:34.853Z,40.13
2023-03-21T03:06:09.013Z,40.36
2023-03-21T03:09:01.873Z,40.35
2023-03-21T03:11:35.835Z,40.50
2023-03-21T03:14:46.791Z,40.47
2023-03-21T03:17:36.060Z,40.53
2023-03-21T03:20:34.177Z,40.83
2023-03-21T03:23:14.937Z,40.89
2023-03-21T03:25:51.198Z,40.93
2023-03-21T03:28:26.343Z,40.69
2023-03-21T03:31:08.063Z,41.03
2023-03-21T03:33:44.121Z,41.09
2023-03-21T03:36:33.484Z,41.05
2023-03-21T03:39:05.834Z,41.39
2023-03-21T03:42:06.005Z,41.50
2023-03-21T03:44:31.260Z,41.56
2023-03-21T03:47:05.409Z,41.42
2023-03-21T03:49:39.523Z,41.61
2023-03-21T03:52:15.903Z,41.79
2023-03-21T03:54:48.273Z,41.73
2023-03-21T03:57:19.389Z,41.71
2023-03-21T03:59:48.499Z,41.64
2023-03-21T04:02:17.422Z,41.78
2023-03-21T04:04:46.048Z,41.64
2023-03-21T04:07:14.848Z,41.74
2023-03-21T04:09:45.057Z,41.85
2023-03-21T04:12:14.201Z,41.86
2023-03-21T04:14:46.042Z,41.82
2023-03-21T04:17:15.814Z,41.68
2023-03-21T04:19:45.463Z,42.02
2023-03-21T04:22:14.719Z,41.89
2023-03-21T04:24:43.600Z,41.90
2023-03-21T04:27:12.237Z,41.93
2023-03-21T04:29:40.890Z,42.03
2023-03-21T04:32:16.491Z,42.06
2023-03-21T04:34:50.266Z,42.28
2023-03-21T04:37:19.429Z,42.24
2023-03-21T04:39:48.177Z,42.29
2023-03-21T04:42:18.625Z,42.30
2023-03-21T04:44:47.286Z,42.60
2023-03-21T04:47:20.340Z,42.69
2023-03-21T04:49:49.299Z,42.62
2023-03-21T04:52:18.362Z,42.64
2023-03-21T04:54:47.023Z,42.70
2023-03-21T04:57:15.965Z,42.73
2023-03-21T04:59:44.419Z,42.82
2023-03-21T05:02:13.269Z,42.89
2023-03-21T05:04:43.375Z,42.86
2023-03-21T05:07:12.501Z,42.98
2023-03-21T05:09:40.962Z,43.05
2023-03-21T05:12:09.387Z,43.02
2023-03-21T05:14:37.812Z,43.09
2023-03-21T05:17:06.307Z,43.22
2023-03-21T05:19:36.303Z,43.17
2023-03-21T05:22:10.200Z,43.32
2023-03-21T05:24:41.905Z,43.41
2023-03-21T05:27:10.610Z,43.30
2023-03-21T05:29:39.043Z,43.29
2023-03-21T05:32:07.645Z,43.18
2023-03-21T05:34:36.045Z,43.21
2023-03-21T05:37:04.423Z,43.08
2023-03-21T05:39:34.238Z,42.97
2023-03-21T05:42:02.666Z,43.09
2023-03-21T05:44:31.125Z,42.98
2023-03-21T05:46:59.665Z,42.92
2023-03-21T05:49:28.117Z,43.06
2023-03-21T05:51:56.578Z,42.91
2023-03-21T05:54:25.044Z,42.96
2023-03-21T05:56:54.840Z,42.91
2023-03-21T05:59:23.292Z,42.67
2023-03-21T06:01:51.732Z,42.84
2023-03-21T06:04:20.282Z,42.79
2023-03-21T06:06:48.664Z,42.70
2023-03-21T06:09:17.104Z,42.50
2023-03-21T06:11:52.844Z,42.25
2023-03-21T06:14:23.420Z,42.00
2023-03-21T06:16:53.891Z,41.75
2023-03-21T06:19:22.617Z,41.85
2023-03-21T06:21:51.309Z,41.77
2023-03-21T06:24:19.904Z,41.69
2023-03-21T06:26:48.456Z,41.71
2023-03-21T06:29:16.950Z,41.67
2023-03-21T06:31:46.822Z,41.79
2023-03-21T06:34:15.456Z,41.67
2023-03-21T06:36:44.778Z,41.68
2023-03-21T06:39:13.511Z,41.73
2023-03-21T06:41:41.978Z,41.39
2023-03-21T06:44:10.515Z,41.36
2023-03-21T06:46:38.985Z,41.55
2023-03-21T06:49:08.814Z,41.22
2023-03-21T06:51:37.532Z,41.28
2023-03-21T06:54:05.985Z,41.02
2023-03-21T06:56:34.442Z,41.03
2023-03-21T06:59:03.654Z,40.92
2023-03-21T07:01:32.252Z,40.90
2023-03-21T07:04:00.702Z,40.72
2023-03-21T07:06:30.517Z,40.52
2023-03-21T07:08:59.286Z,40.22
2023-03-21T07:11:28.128Z,40.28
2023-03-21T07:13:56.627Z,39.88
2023-03-21T07:16:25.511Z,39.80
2023-03-21T07:18:54.642Z,39.31
2023-03-21T07:21:23.155Z,39.26
2023-03-21T07:23:53.593Z,39.20
2023-03-21T07:26:22.828Z,39.10
2023-03-21T07:28:51.226Z,38.67
2023-03-21T07:31:19.768Z,38.55
2023-03-21T07:33:48.270Z,38.18
2023-03-21T07:36:17.414Z,38.26
2023-03-21T07:38:46.668Z,38.35
2023-03-21T07:43:50.139Z,37.83
2023-03-21T07:46:18.658Z,37.22
2023-03-21T07:48:47.145Z,37.07
2023-03-21T07:51:15.586Z,36.52
2023-03-21T07:53:48.485Z,36.57
2023-03-21T07:56:18.261Z,36.60
2023-03-21T07:58:46.717Z,36.72
2023-03-21T08:01:15.440Z,36.33
2023-03-21T08:03:44.285Z,36.15
2023-03-21T08:06:12.831Z,35.98
2023-03-21T08:08:41.349Z,35.94
2023-03-21T08:11:10.375Z,36.04
2023-03-21T08:13:41.185Z,34.85
2023-03-21T08:16:10.781Z,34.46
2023-03-21T08:18:39.256Z,34.67
2023-03-21T08:21:09.699Z,34.43
2023-03-21T08:23:38.228Z,33.88
2023-03-21T08:26:07.712Z,34.06
2023-03-21T08:28:36.716Z,34.52
2023-03-21T08:31:11.349Z,33.92
2023-03-21T08:33:40.556Z,33.46
2023-03-21T08:36:10.661Z,32.84
2023-03-21T08:38:39.690Z,33.41
2023-03-21T08:41:08.788Z,33.31
2023-03-21T08:43:37.237Z,32.57
2023-03-21T08:46:05.959Z,32.94
2023-03-21T08:48:38.805Z,32.21
2023-03-21T08:51:07.701Z,32.18
2023-03-21T08:53:36.369Z,31.54
2023-03-21T08:56:05.056Z,32.09
2023-03-21T08:58:33.547Z,32.03
2023-03-21T09:01:02.073Z,31.07
2023-03-21T09:03:30.591Z,30.90
2023-03-21T09:06:00.898Z,31.09
2023-03-21T09:08:29.358Z,31.51
2023-03-21T09:10:58.551Z,31.17
2023-03-21T09:13:27.068Z,31.26
2023-03-21T09:15:58.269Z,30.73
2023-03-21T09:18:45.379Z,31.07
2023-03-21T09:21:16.242Z,31.13
2023-03-21T09:23:46.264Z,31.27
2023-03-21T09:26:16.264Z,31.13
2023-03-21T09:28:46.270Z,30.88
2023-03-21T09:31:16.666Z,30.70
2023-03-21T09:33:45.250Z,30.86
2023-03-21T09:36:15.527Z,30.91
2023-03-21T09:38:46.073Z,30.27
2023-03-21T09:41:46.724Z,31.09
2023-03-21T09:44:32.995Z,31.13
2023-03-21T09:47:15.349Z,31.17
2023-03-21T09:49:49.183Z,31.22
2023-03-21T09:52:25.679Z,31.39
2023-03-21T09:54:55.799Z,31.57
2023-03-21T09:57:34.939Z,31.73
2023-03-21T10:00:12.344Z,31.35
2023-03-21T10:02:48.077Z,31.14
2023-03-21T10:05:21.825Z,31.03
2023-03-21T10:07:59.733Z,31.04
2023-03-21T10:10:31.448Z,31.10
2023-03-21T10:13:00.090Z,31.07
2023-03-21T10:15:28.964Z,30.74
2023-03-21T10:18:03.361Z,30.77
2023-03-21T10:20:33.936Z,30.13
2023-03-21T10:23:08.185Z,30.20
2023-03-21T10:25:41.784Z,29.42
2023-03-21T10:28:17.591Z,29.32
2023-03-21T10:30:49.528Z,29.82
2023-03-21T10:33:21.686Z,29.41
2023-03-21T10:35:54.501Z,28.99
2023-03-21T10:38:27.557Z,29.14
2023-03-21T10:40:57.109Z,29.19
2023-03-21T10:43:37.936Z,29.34
2023-03-21T10:46:14.731Z,29.35
2023-03-21T10:48:47.134Z,29.70
2023-03-21T10:51:21.908Z,29.25
2023-03-21T10:53:57.179Z,28.85
2023-03-21T10:56:29.500Z,28.54
2023-03-21T10:59:00.462Z,27.42
2023-03-21T11:01:35.337Z,27.85
2023-03-21T11:04:11.313Z,27.43
2023-03-21T11:06:42.445Z,27.59
2023-03-21T11:09:19.737Z,26.36
2023-03-21T11:11:54.501Z,26.85
2023-03-21T11:14:34.378Z,26.51
2023-03-21T11:17:03.149Z,24.42
2023-03-21T11:19:34.537Z,24.50
2023-03-21T11:22:08.896Z,24.79
2023-03-21T11:24:38.816Z,24.95
2023-03-21T11:27:09.529Z,24.88
2023-03-21T11:29:40.624Z,24.68
2023-03-21T11:32:14.797Z,24.98
2023-03-21T11:34:49.744Z,25.56
2023-03-21T11:37:23.407Z,25.58
2023-03-21T11:39:58.256Z,24.34
2023-03-21T11:42:32.841Z,24.55
2023-03-21T11:45:13.969Z,23.98
2023-03-21T11:47:42.640Z,23.26
2023-03-21T11:50:25.636Z,23.90
2023-03-21T11:53:26.718Z,23.72
2023-03-21T11:56:11.734Z,23.46
2023-03-21T11:59:01.676Z,23.63
2023-03-21T12:01:39.007Z,23.93
2023-03-21T12:04:22.420Z,21.35
2023-03-21T12:06:57.462Z,21.67
2023-03-21T12:09:37.992Z,21.08
2023-03-21T12:12:38.807Z,19.92
2023-03-21T12:15:18.903Z,20.54
2023-03-21T12:17:59.813Z,20.69
2023-03-21T12:20:38.943Z,20.54
2023-03-21T12:23:30.955Z,19.22
2023-03-21T12:26:15.075Z,20.04
2023-03-21T12:29:00.510Z,18.30
2023-03-21T12:31:39.824Z,17.69
2023-03-21T12:34:29.315Z,17.19
2023-03-21T12:37:13.998Z,17.43
2023-03-21T12:39:42.855Z,17.09
2023-03-21T12:42:39.285Z,17.03
2023-03-21T12:45:18.393Z,16.82
2023-03-21T12:47:56.223Z,16.36
2023-03-21T12:50:32.926Z,16.48
2023-03-21T12:53:18.747Z,16.63
2023-03-21T12:55:47.525Z,16.64
2023-03-21T12:58:22.752Z,17.32
2023-03-21T13:00:57.445Z,17.14
2023-03-21T13:03:39.937Z,16.74
2023-03-21T13:06:12.783Z,16.41
2023-03-21T13:08:46.342Z,16.89
2023-03-21T13:11:20.641Z,17.61
2023-03-21T13:13:55.092Z,17.14
2023-03-21T13:16:29.777Z,17.67
2023-03-21T13:19:10.568Z,18.06
2023-03-21T13:21:51.973Z,18.57
2023-03-21T13:24:29.409Z,19.38
2023-03-21T13:27:06.737Z,19.50
2023-03-21T13:29:45.992Z,20.23
2023-03-21T13:32:30.849Z,20.17
2023-03-21T13:35:04.011Z,20.53
2023-03-21T13:37:36.911Z,20.39
2023-03-21T13:40:21.000Z,20.63
2023-03-21T13:42:54.649Z,21.14
2023-03-21T13:45:31.942Z,21.25
2023-03-21T13:48:05.386Z,21.50
2023-03-21T13:50:54.790Z,21.47
2023-03-21T13:53:32.663Z,21.67
2023-03-21T13:56:22.289Z,21.61
2023-03-21T13:59:04.933Z,21.96
2023-03-21T14:01:41.507Z,21.90
2023-03-21T14:04:24.770Z,22.16
2023-03-21T14:07:03.201Z,21.80
2023-03-21T14:09:36.757Z,21.55
2023-03-21T14:12:09.627Z,21.20
2023-03-21T14:14:43.079Z,20.99
2023-03-21T14:17:15.464Z,20.77
2023-03-21T14:19:45.405Z,20.74
2023-03-21T14:22:15.837Z,20.89
2023-03-21T14:24:50.876Z,21.00
2023-03-21T14:27:21.433Z,21.46
2023-03-21T14:29:53.400Z,21.31
2023-03-21T14:32:26.961Z,21.75
2023-03-21T14:34:58.943Z,22.11
2023-03-21T14:37:31.157Z,22.17
2023-03-21T14:40:01.729Z,22.48
2023-03-21T14:42:35.143Z,22.65
2023-03-21T14:45:18.893Z,22.81
2023-03-21T14:48:01.056Z,22.85
2023-03-21T14:50:39.926Z,22.83
2023-03-21T14:53:12.850Z,23.26
2023-03-21T14:55:46.361Z,23.02
2023-03-21T14:58:17.647Z,23.35
2023-03-21T15:00:49.638Z,23.42
2023-03-21T15:03:20.203Z,23.48
2023-03-21T15:05:50.529Z,23.20
2023-03-21T15:08:22.040Z,23.51
2023-03-21T15:11:06.982Z,23.46
2023-03-21T15:13:41.446Z,23.50
2023-03-21T15:16:11.429Z,23.61
2023-03-21T15:18:41.276Z,23.75
2023-03-21T15:21:16.591Z,23.75
2023-03-21T15:23:48.065Z,23.64
2023-03-21T15:26:20.604Z,23.86
2023-03-21T15:28:51.650Z,23.95
2023-03-21T15:31:23.263Z,23.93
2023-03-21T15:33:54.656Z,24.18
2023-03-21T15:36:28.419Z,24.10
2023-03-21T15:38:57.308Z,24.22
2023-03-21T15:41:31.225Z,24.34
2023-03-21T15:44:13.475Z,24.36
2023-03-21T15:46:44.974Z,24.47
2023-03-21T15:49:25.381Z,24.54
2023-03-21T15:52:02.548Z,24.65
2023-03-21T15:54:34.244Z,24.57
2023-03-21T15:57:09.505Z,24.64
2023-03-21T15:59:43.559Z,24.61
2023-03-21T16:02:21.279Z,24.67
2023-03-21T16:05:01.677Z,24.62
2023-03-21T16:07:36.126Z,24.72
2023-03-21T16:10:06.260Z,24.58
2023-03-21T16:12:35.348Z,24.65
2023-03-21T16:15:03.849Z,24.73
2023-03-21T16:17:37.865Z,24.68
2023-03-21T16:20:17.943Z,24.91
2023-03-21T16:22:48.182Z,24.90
2023-03-21T16:25:18.133Z,24.94
2023-03-21T16:27:47.626Z,25.11
2023-03-21T16:30:19.927Z,24.86
2023-03-21T16:32:49.953Z,24.89
2023-03-21T16:35:21.099Z,25.21
2023-03-21T16:37:52.169Z,25.22
2023-03-21T16:40:30.009Z,25.21
2023-03-21T16:42:58.497Z,25.22
2023-03-21T16:45:28.849Z,25.09
2023-03-21T16:47:57.747Z,25.16
2023-03-21T16:50:31.771Z,25.21
2023-03-21T16:53:01.916Z,25.14
2023-03-21T16:55:33.070Z,25.20
2023-03-21T16:58:02.406Z,25.45
2023-03-21T17:00:32.077Z,25.48
2023-03-21T17:03:03.968Z,25.32
2023-03-21T17:05:32.775Z,25.56
2023-03-21T17:08:04.629Z,25.30
2023-03-21T17:10:35.629Z,25.54
2023-03-21T17:13:04.097Z,25.96
2023-03-21T17:15:32.526Z,25.89
2023-03-21T17:18:01.188Z,25.81
2023-03-21T17:20:33.653Z,26.09
2023-03-21T17:23:04.402Z,26.28
2023-03-21T17:25:32.861Z,26.30
2023-03-21T17:28:01.546Z,26.27
2023-03-21T17:30:35.563Z,26.59
2023-03-21T17:33:04.947Z,26.40
2023-03-21T17:35:33.808Z,26.64
2023-03-21T17:38:04.542Z,27.07
2023-03-21T17:40:34.594Z,27.16
2023-03-21T17:43:03.737Z,27.17
2023-03-21T17:45:32.630Z,27.28
2023-03-21T17:48:02.090Z,27.27
2023-03-21T17:50:37.026Z,27.44
2023-03-21T17:53:08.581Z,27.30
2023-03-21T17:55:37.875Z,27.77
2023-03-21T17:58:08.026Z,27.75
2023-03-21T18:00:38.585Z,27.74
2023-03-21T18:03:07.564Z,27.87
2023-03-21T18:05:36.453Z,28.07
2023-03-21T18:08:11.282Z,28.36
2023-03-21T18:10:43.042Z,28.18
2023-03-21T18:13:12.521Z,28.46
2023-03-21T18:15:44.703Z,28.56
2023-03-21T18:18:15.739Z,28.60
2023-03-21T18:20:52.029Z,28.60
2023-03-21T18:23:30.043Z,28.74
2023-03-21T18:26:00.322Z,28.62
2023-03-21T18:28:31.017Z,28.86
2023-03-21T18:31:11.434Z,28.92
2023-03-21T18:33:45.714Z,29.04
2023-03-21T18:36:24.788Z,29.15
2023-03-21T18:38:57.146Z,29.25
2023-03-21T18:41:28.313Z,29.36
2023-03-21T18:44:05.393Z,29.51
2023-03-21T18:46:47.615Z,29.54
2023-03-21T18:52:10.052Z,29.89
2023-03-21T18:54:45.495Z,30.11
2023-03-21T18:57:37.863Z,30.05
2023-03-21T19:00:13.903Z,30.13
2023-03-21T19:02:47.874Z,30.30
2023-03-21T19:05:22.008Z,30.39
2023-03-21T19:07:54.298Z,30.52
2023-03-21T19:10:28.812Z,30.62
2023-03-21T19:12:59.212Z,30.56
2023-03-21T19:15:29.894Z,30.69
2023-03-21T19:18:37.296Z,30.83
2023-03-21T19:20:51.098Z,30.88
2023-03-21T19:23:21.968Z,31.08
2023-03-21T19:25:53.821Z,31.23
2023-03-21T19:28:24.591Z,31.35
2023-03-21T19:30:57.251Z,31.31
2023-03-21T19:33:28.016Z,31.35
2023-03-21T19:36:12.940Z,31.50
2023-03-21T19:38:46.523Z,31.41
2023-03-21T19:41:18.561Z,31.71
2023-03-21T19:43:55.240Z,31.80
2023-03-21T19:46:27.496Z,31.67
2023-03-21T19:49:01.254Z,31.90
2023-03-21T19:51:32.767Z,31.92
2023-03-21T19:54:06.783Z,32.06
2023-03-21T19:56:39.129Z,32.12
2023-03-21T19:59:10.650Z,32.12
2023-03-21T20:01:41.277Z,32.08
2023-03-21T20:04:11.858Z,32.26
2023-03-21T20:06:42.132Z,32.37
2023-03-21T20:12:08.976Z,32.36
2023-03-21T20:14:49.088Z,32.50
2023-03-21T20:17:20.821Z,32.34
2023-03-21T20:19:53.915Z,32.60
2023-03-21T20:22:35.998Z,32.64
2023-03-21T20:25:17.144Z,32.67
2023-03-21T20:28:00.093Z,32.51
2023-03-21T20:30:39.389Z,32.76
2023-03-21T20:33:10.179Z,32.62
2023-03-21T20:36:29.424Z,32.76
2023-03-21T20:38:38.331Z,32.55
2023-03-21T20:41:09.556Z,32.55
2023-03-21T20:46:31.783Z,32.62
2023-03-21T20:49:02.088Z,32.59
2023-03-21T20:52:35.977Z,32.55
2023-03-21T20:54:23.555Z,32.53
2023-03-21T20:56:53.689Z,32.44
2023-03-21T20:59:28.208Z,32.44
2023-03-21T21:01:59.464Z,32.41
2023-03-21T21:04:52.958Z,32.38
2023-03-21T21:07:23.018Z,32.41
2023-03-21T21:09:53.238Z,32.46
2023-03-21T21:12:28.401Z,32.50
2023-03-21T21:14:59.447Z,32.56
2023-03-21T21:17:57.951Z,32.46
2023-03-21T21:20:20.814Z,32.54
2023-03-21T21:23:00.055Z,32.54
2023-03-21T21:25:30.821Z,32.55
2023-03-21T21:28:01.666Z,32.79
2023-03-21T21:30:33.735Z,32.75
2023-03-21T21:33:02.326Z,32.67
2023-03-21T21:35:33.589Z,32.70
2023-03-21T21:38:02.134Z,32.80
2023-03-21T21:40:31.171Z,32.77
2023-03-21T21:43:03.517Z,32.76
2023-03-21T21:45:33.586Z,32.86
2023-03-21T21:48:02.198Z,32.74
2023-03-21T21:50:30.716Z,32.88
2023-03-21T21:53:03.946Z,32.77
2023-03-21T21:55:33.373Z,32.75
2023-03-21T21:58:01.971Z,32.71
2023-03-21T22:00:34.204Z,32.74
2023-03-21T22:03:03.037Z,32.71
2023-03-21T22:05:32.004Z,32.86
2023-03-21T22:08:00.442Z,32.45
2023-03-21T22:10:29.440Z,32.86
2023-03-21T22:12:57.887Z,32.82
2023-03-21T22:15:27.108Z,32.86
2023-03-21T22:17:57.112Z,33.01
2023-03-21T22:20:25.673Z,32.84
2023-03-21T22:22:56.701Z,32.98
2023-03-21T22:25:25.559Z,32.93
2023-03-21T22:27:54.316Z,32.96
2023-03-21T22:30:22.911Z,32.96
2023-03-21T22:33:06.181Z,32.96
2023-03-21T22:35:38.533Z,32.89
2023-03-21T22:38:07.060Z,33.04
2023-03-21T22:40:35.529Z,33.03
2023-03-21T22:43:04.013Z,33.03
2023-03-21T22:45:34.886Z,33.08
2023-03-21T22:48:03.588Z,33.11
2023-03-21T22:50:32.080Z,33.07
2023-03-21T22:53:01.910Z,33.23
2023-03-21T22:55:30.546Z,33.22
2023-03-21T22:57:59.082Z,33.09
2023-03-21T23:00:27.690Z,33.30
2023-03-21T23:02:57.251Z,33.28
2023-03-21T23:05:25.741Z,33.20
2023-03-21T23:07:54.625Z,33.28
2023-03-21T23:10:26.353Z,33.31
2023-03-21T23:12:54.789Z,33.37
2023-03-21T23:15:23.421Z,33.42
2023-03-21T23:17:51.818Z,33.37
2023-03-21T23:20:20.506Z,33.42
2023-03-21T23:22:48.966Z,33.58
2023-03-21T23:25:20.587Z,33.42
2023-03-21T23:27:50.672Z,33.51
2023-03-21T23:30:19.227Z,33.44
2023-03-21T23:32:48.228Z,33.41
2023-03-21T23:35:16.907Z,33.54
2023-03-21T23:37:50.012Z,33.41
2023-03-21T23:40:18.790Z,33.50
2023-03-21T23:42:47.250Z,33.48
2023-03-21T23:45:17.387Z,33.49
2023-03-21T23:47:45.922Z,33.59
2023-03-21T23:50:14.483Z,33.53
2023-03-21T23:52:42.927Z,33.58
2023-03-21T23:55:11.721Z,33.58
2023-03-21T23:57:41.917Z,33.55
